createdAt,value
2018-06-22T00:00:35.895Z,660.00
2018-06-22T00:01:35.837Z,714.50
2018-06-22T00:02:35.814Z,674.10
2018-06-22T00:03:35.797Z,674.20
2018-06-22T00:04:35.757Z,679.20
2018-06-22T00:05:36.705Z,671.50
2018-06-22T00:06:35.709Z,663.70
2018-06-22T00:07:36.155Z,665.30
2018-06-22T00:08:37.215Z,682.70
2018-06-22T00:09:36.294Z,642.40
2018-06-22T00:10:35.610Z,672.10
2018-06-22T00:11:35.573Z,704.70
2018-06-22T00:12:35.554Z,670.00
2018-06-22T00:13:35.528Z,687.90
2018-06-22T00:14:35.501Z,658.80
2018-06-22T00:15:35.472Z,659.70
2018-06-22T00:16:35.456Z,680.20
2018-06-22T00:17:35.426Z,644.40
2018-06-22T00:18:35.394Z,675.30
2018-06-22T00:19:35.371Z,687.40
2018-06-22T00:20:35.347Z,675.90
2018-06-22T00:21:35.313Z,694.80
2018-06-22T00:22:35.300Z,721.30
2018-06-22T00:23:35.264Z,736.30
2018-06-22T00:24:35.243Z,709.40
2018-06-22T00:25:35.214Z,672.00
2018-06-22T00:26:35.181Z,757.90
2018-06-22T00:27:35.165Z,728.60
2018-06-22T00:28:35.135Z,693.40
2018-06-22T00:29:35.106Z,701.40
2018-06-22T00:30:35.079Z,628.10
2018-06-22T00:31:35.058Z,712.20
2018-06-22T00:32:35.046Z,680.80
2018-06-22T00:33:35.002Z,658.20
2018-06-22T00:34:34.979Z,667.40
2018-06-22T00:35:34.956Z,676.20
2018-06-22T00:36:34.926Z,692.80
2018-06-22T00:37:34.897Z,683.90
2018-06-22T00:38:34.868Z,637.10
2018-06-22T00:39:34.852Z,681.20
2018-06-22T00:40:34.829Z,714.10
2018-06-22T00:41:34.798Z,709.50
2018-06-22T00:42:34.773Z,701.40
2018-06-22T00:43:34.749Z,700.90
2018-06-22T00:44:34.725Z,715.70
2018-06-22T00:45:34.686Z,694.40
2018-06-22T00:46:34.664Z,694.80
2018-06-22T00:47:34.639Z,697.70
2018-06-22T00:48:34.618Z,702.20
2018-06-22T00:49:34.598Z,679.30
2018-06-22T00:50:34.558Z,711.20
2018-06-22T00:51:34.530Z,729.50
2018-06-22T00:52:34.508Z,727.80
2018-06-22T00:53:34.477Z,725.80
2018-06-22T00:54:34.458Z,708.80
2018-06-22T00:55:34.431Z,715.80
2018-06-22T00:56:34.408Z,714.00
2018-06-22T00:57:34.372Z,731.30
2018-06-22T00:58:34.361Z,735.30
2018-06-22T00:59:34.323Z,746.00
2018-06-22T01:00:34.300Z,691.80
2018-06-22T01:01:34.275Z,716.90
2018-06-22T01:02:34.249Z,713.20
2018-06-22T01:03:34.220Z,721.40
2018-06-22T01:04:34.198Z,730.30
2018-06-22T01:05:34.162Z,727.80
2018-06-22T01:06:34.143Z,728.40
2018-06-22T01:07:34.114Z,735.70
2018-06-22T01:08:34.089Z,725.00
2018-06-22T01:09:34.068Z,734.60
2018-06-22T01:10:34.037Z,742.40
2018-06-22T01:11:34.009Z,734.40
2018-06-22T01:12:33.984Z,697.90
2018-06-22T01:13:33.961Z,719.70
2018-06-22T01:14:33.931Z,710.40
2018-06-22T01:15:33.910Z,717.60
2018-06-22T01:16:33.885Z,715.80
2018-06-22T01:17:33.848Z,713.80
2018-06-22T01:18:33.823Z,703.60
2018-06-22T01:19:33.800Z,713.50
2018-06-22T01:20:33.771Z,712.10
2018-06-22T01:21:33.753Z,714.80
2018-06-22T01:22:33.721Z,710.60
2018-06-22T01:23:33.701Z,729.70
2018-06-22T01:24:33.669Z,727.30
2018-06-22T01:25:33.644Z,738.80
2018-06-22T01:26:33.616Z,726.70
2018-06-22T01:27:33.593Z,727.50
2018-06-22T01:28:33.563Z,725.80
2018-06-22T01:29:33.555Z,742.50
2018-06-22T01:30:33.516Z,774.20
2018-06-22T01:31:33.500Z,779.30
2018-06-22T01:32:33.468Z,756.10
2018-06-22T01:33:33.433Z,762.10
2018-06-22T01:34:33.407Z,784.90
2018-06-22T01:35:33.383Z,780.20
2018-06-22T01:36:33.360Z,771.00
2018-06-22T01:37:33.331Z,783.30
2018-06-22T01:38:33.319Z,795.20
2018-06-22T01:39:33.282Z,790.40
2018-06-22T01:40:33.253Z,788.40
2018-06-22T01:41:33.229Z,777.90
2018-06-22T01:42:33.199Z,770.70
2018-06-22T01:43:33.171Z,818.90
2018-06-22T01:44:33.151Z,823.10
2018-06-22T01:45:33.119Z,823.50
2018-06-22T01:46:33.092Z,827.30
2018-06-22T01:47:33.076Z,830.20
2018-06-22T01:48:33.041Z,824.50
2018-06-22T01:49:33.018Z,795.00
2018-06-22T01:50:33.249Z,812.60
2018-06-22T01:51:32.969Z,801.40
2018-06-22T01:52:32.932Z,776.10
2018-06-22T01:53:32.915Z,729.40
2018-06-22T01:54:32.891Z,728.00
2018-06-22T01:55:33.071Z,748.60
2018-06-22T01:56:32.830Z,743.40
2018-06-22T01:57:32.801Z,726.70
2018-06-22T01:58:32.778Z,742.90
2018-06-22T01:59:32.755Z,772.50
2018-06-22T02:00:32.727Z,731.60
2018-06-22T02:01:32.703Z,754.60
2018-06-22T02:02:32.678Z,708.00
2018-06-22T02:03:32.698Z,725.50
2018-06-22T02:04:32.631Z,776.90
2018-06-22T02:05:32.597Z,819.30
2018-06-22T02:06:32.582Z,827.10
2018-06-22T02:07:32.547Z,842.60
2018-06-22T02:08:32.523Z,843.20
2018-06-22T02:09:32.489Z,716.20
2018-06-22T02:10:32.466Z,712.80
2018-06-22T02:11:32.446Z,739.00
2018-06-22T02:12:32.414Z,734.30
2018-06-22T02:13:32.391Z,725.70
2018-06-22T02:14:32.363Z,723.10
2018-06-22T02:15:32.356Z,721.70
2018-06-22T02:16:32.310Z,723.00
2018-06-22T02:17:32.282Z,741.50
2018-06-22T02:18:32.267Z,737.40
2018-06-22T02:19:32.226Z,729.30
2018-06-22T02:20:32.203Z,765.20
2018-06-22T02:21:32.181Z,766.30
2018-06-22T02:22:32.147Z,745.90
2018-06-22T02:23:32.124Z,765.10
2018-06-22T02:24:32.117Z,755.90
2018-06-22T02:25:32.078Z,755.90
2018-06-22T02:26:32.047Z,784.20
2018-06-22T02:27:32.024Z,772.50
2018-06-22T02:28:32.077Z,759.50
2018-06-22T02:29:31.965Z,748.90
2018-06-22T02:30:31.954Z,768.80
2018-06-22T02:31:31.912Z,778.60
2018-06-22T02:32:31.888Z,756.10
2018-06-22T02:33:31.866Z,778.00
2018-06-22T02:34:31.834Z,767.20
2018-06-22T02:35:31.814Z,736.30
2018-06-22T02:36:31.786Z,757.40
2018-06-22T02:37:31.759Z,762.00
2018-06-22T02:38:31.729Z,750.10
2018-06-22T02:39:31.711Z,767.70
2018-06-22T02:40:31.682Z,772.20
2018-06-22T02:41:31.652Z,743.40
2018-06-22T02:42:31.632Z,721.10
2018-06-22T02:43:31.597Z,759.60
2018-06-22T02:44:31.575Z,760.10
2018-06-22T02:45:31.550Z,776.60
2018-06-22T02:46:31.520Z,774.10
2018-06-22T02:47:31.499Z,760.90
2018-06-22T02:48:31.474Z,778.20
2018-06-22T02:49:31.441Z,781.60
2018-06-22T02:50:31.422Z,770.50
2018-06-22T02:51:31.398Z,738.10
2018-06-22T02:52:31.363Z,746.10
2018-06-22T02:53:31.343Z,759.30
2018-06-22T02:54:31.319Z,752.10
2018-06-22T02:55:31.281Z,681.00
2018-06-22T02:56:31.260Z,781.10
2018-06-22T02:57:31.304Z,799.60
2018-06-22T02:58:31.203Z,814.20
2018-06-22T02:59:31.188Z,809.80
2018-06-22T03:00:31.157Z,810.00
2018-06-22T03:01:31.128Z,766.40
2018-06-22T03:02:31.107Z,776.30
2018-06-22T03:03:31.078Z,770.30
2018-06-22T03:04:31.048Z,784.80
2018-06-22T03:05:31.029Z,773.60
2018-06-22T03:06:30.999Z,798.20
2018-06-22T03:07:30.973Z,810.40
2018-06-22T03:08:30.954Z,818.70
2018-06-22T03:09:30.914Z,832.00
2018-06-22T03:10:30.895Z,811.50
2018-06-22T03:11:30.866Z,802.70
2018-06-22T03:12:30.839Z,767.20
2018-06-22T03:13:30.830Z,763.20
2018-06-22T03:14:30.793Z,745.20
2018-06-22T03:15:30.756Z,754.80
2018-06-22T03:16:30.742Z,747.10
2018-06-22T03:17:30.714Z,750.60
2018-06-22T03:18:30.684Z,795.10
2018-06-22T03:19:30.677Z,779.80
2018-06-22T03:20:30.640Z,798.90
2018-06-22T03:21:30.605Z,820.00
2018-06-22T03:22:30.579Z,842.10
2018-06-22T03:23:30.558Z,889.00
2018-06-22T03:24:30.524Z,890.50
2018-06-22T03:25:30.497Z,882.40
2018-06-22T03:26:30.473Z,892.00
2018-06-22T03:27:30.450Z,866.90
2018-06-22T03:28:30.421Z,880.40
2018-06-22T03:29:30.400Z,903.10
2018-06-22T03:30:30.368Z,986.10
2018-06-22T03:31:30.358Z,947.10
2018-06-22T03:32:30.321Z,967.20
2018-06-22T03:33:30.290Z,900.70
2018-06-22T03:34:30.264Z,905.10
2018-06-22T03:35:30.244Z,881.40
2018-06-22T03:36:30.208Z,872.20
2018-06-22T03:37:30.190Z,843.40
2018-06-22T03:38:30.162Z,874.50
2018-06-22T03:39:30.185Z,864.80
2018-06-22T03:40:30.106Z,944.20
2018-06-22T03:41:30.077Z,844.40
2018-06-22T03:42:30.059Z,875.80
2018-06-22T03:43:30.026Z,825.90
2018-06-22T03:44:30.000Z,773.70
2018-06-22T03:45:29.978Z,789.30
2018-06-22T03:46:29.951Z,755.90
2018-06-22T03:47:29.928Z,740.50
2018-06-22T03:48:29.900Z,749.50
2018-06-22T03:49:29.867Z,746.10
2018-06-22T03:50:29.862Z,736.40
2018-06-22T03:51:29.820Z,719.10
2018-06-22T03:52:29.797Z,671.80
2018-06-22T03:53:29.784Z,709.20
2018-06-22T03:54:29.741Z,742.70
2018-06-22T03:55:29.710Z,676.60
2018-06-22T03:56:29.682Z,724.30
2018-06-22T03:57:29.663Z,700.00
2018-06-22T03:58:29.639Z,719.60
2018-06-22T03:59:29.625Z,728.20
2018-06-22T04:00:29.584Z,723.80
2018-06-22T04:01:29.551Z,681.60
2018-06-22T04:02:29.531Z,663.90
2018-06-22T04:03:29.558Z,757.50
2018-06-22T04:04:29.474Z,706.40
2018-06-22T04:05:29.456Z,704.70
2018-06-22T04:06:29.424Z,681.10
2018-06-22T04:07:29.423Z,697.00
2018-06-22T04:08:29.422Z,670.00
2018-06-22T04:09:29.399Z,686.60
2018-06-22T04:10:29.320Z,652.20
2018-06-22T04:11:29.294Z,700.20
2018-06-22T04:12:29.271Z,705.80
2018-06-22T04:13:29.244Z,758.90
2018-06-22T04:14:29.210Z,672.40
2018-06-22T04:15:29.192Z,729.30
2018-06-22T04:16:29.163Z,727.10
2018-06-22T04:17:29.145Z,652.80
2018-06-22T04:18:29.448Z,640.60
2018-06-22T04:19:29.080Z,659.90
2018-06-22T04:20:29.054Z,679.20
2018-06-22T04:21:29.033Z,664.20
2018-06-22T04:22:29.004Z,690.20
2018-06-22T04:23:28.980Z,651.90
2018-06-22T04:24:29.000Z,763.70
2018-06-22T04:25:28.927Z,676.20
2018-06-22T04:26:28.900Z,628.60
2018-06-22T04:27:28.877Z,745.30
2018-06-22T04:28:28.844Z,701.40
2018-06-22T04:29:28.835Z,701.20
2018-06-22T04:30:28.798Z,664.30
2018-06-22T04:31:28.766Z,684.70
2018-06-22T04:32:28.741Z,734.80
2018-06-22T04:33:28.718Z,721.40
2018-06-22T04:34:28.684Z,684.10
2018-06-22T04:35:28.668Z,623.20
2018-06-22T04:36:28.640Z,728.70
2018-06-22T04:37:28.609Z,649.50
2018-06-22T04:38:28.587Z,677.30
2018-06-22T04:39:28.569Z,702.60
2018-06-22T04:40:28.537Z,650.00
2018-06-22T04:41:28.511Z,673.00
2018-06-22T04:42:28.483Z,688.10
2018-06-22T04:43:28.452Z,585.10
2018-06-22T04:44:28.429Z,682.40
2018-06-22T04:45:28.412Z,569.40
2018-06-22T04:46:28.374Z,659.90
2018-06-22T04:47:28.354Z,649.60
2018-06-22T04:48:28.333Z,715.10
2018-06-22T04:49:28.297Z,687.60
2018-06-22T04:50:28.278Z,686.70
2018-06-22T04:51:28.246Z,695.90
2018-06-22T04:52:28.218Z,642.30
2018-06-22T04:53:28.194Z,671.90
2018-06-22T04:54:28.185Z,530.10
2018-06-22T04:55:28.148Z,629.60
2018-06-22T04:56:28.121Z,598.00
2018-06-22T04:57:28.089Z,675.50
2018-06-22T04:58:28.061Z,620.60
2018-06-22T04:59:28.038Z,644.40
2018-06-22T05:00:28.013Z,626.20
2018-06-22T05:01:27.987Z,643.90
2018-06-22T05:02:27.963Z,686.00
2018-06-22T05:03:27.928Z,623.10
2018-06-22T05:04:27.903Z,612.60
2018-06-22T05:05:27.881Z,634.30
2018-06-22T05:06:27.850Z,661.00
2018-06-22T05:07:27.832Z,599.20
2018-06-22T05:08:27.801Z,621.30
2018-06-22T05:09:27.778Z,628.70
2018-06-22T05:10:27.748Z,566.20
2018-06-22T05:11:27.727Z,595.80
2018-06-22T05:12:27.699Z,612.60
2018-06-22T05:13:27.675Z,579.10
2018-06-22T05:14:27.648Z,555.20
2018-06-22T05:15:27.618Z,522.00
2018-06-22T05:16:27.591Z,488.80
2018-06-22T05:17:27.565Z,488.70
2018-06-22T05:18:27.541Z,622.10
2018-06-22T05:19:27.511Z,508.30
2018-06-22T05:20:27.489Z,530.10
2018-06-22T05:21:27.457Z,543.70
2018-06-22T05:22:27.434Z,546.30
2018-06-22T05:23:27.411Z,566.10
2018-06-22T05:24:27.385Z,567.90
2018-06-22T05:25:27.358Z,589.50
2018-06-22T05:26:27.329Z,656.60
2018-06-22T05:27:27.303Z,647.10
2018-06-22T05:28:27.276Z,637.50
2018-06-22T05:29:27.246Z,558.70
2018-06-22T05:30:27.252Z,538.60
2018-06-22T05:31:27.203Z,610.40
2018-06-22T05:32:27.213Z,577.60
2018-06-22T05:33:27.189Z,622.60
2018-06-22T05:34:27.151Z,583.10
2018-06-22T05:35:27.096Z,584.00
2018-06-22T05:36:27.112Z,587.00
2018-06-22T05:37:27.063Z,665.20
2018-06-22T05:38:27.042Z,643.30
2018-06-22T05:39:26.997Z,604.00
2018-06-22T05:40:26.966Z,530.60
2018-06-22T05:41:26.990Z,600.50
2018-06-22T05:42:26.912Z,564.20
2018-06-22T05:43:26.913Z,622.00
2018-06-22T05:44:26.875Z,488.90
2018-06-22T05:45:26.850Z,508.80
2018-06-22T05:46:26.830Z,630.40
2018-06-22T05:47:26.793Z,612.40
2018-06-22T05:48:26.775Z,641.10
2018-06-22T05:49:26.724Z,605.60
2018-06-22T05:50:26.704Z,494.90
2018-06-22T05:51:26.680Z,560.20
2018-06-22T05:52:26.650Z,547.30
2018-06-22T05:53:26.628Z,541.50
2018-06-22T05:54:26.597Z,630.40
2018-06-22T05:55:26.590Z,544.60
2018-06-22T05:56:26.611Z,597.50
2018-06-22T05:57:26.515Z,584.20
2018-06-22T05:58:26.497Z,609.90
2018-06-22T05:59:26.465Z,518.40
2018-06-22T06:00:26.464Z,485.20
2018-06-22T06:01:26.412Z,501.60
2018-06-22T06:02:26.386Z,548.60
2018-06-22T06:03:26.382Z,506.00
2018-06-22T06:04:26.337Z,514.20
2018-06-22T06:05:26.308Z,525.20
2018-06-22T06:06:26.281Z,475.50
2018-06-22T06:07:26.261Z,530.50
2018-06-22T06:08:26.230Z,565.30
2018-06-22T06:09:26.207Z,623.00
2018-06-22T06:10:26.180Z,547.60
2018-06-22T06:11:26.170Z,561.90
2018-06-22T06:12:26.209Z,566.10
2018-06-22T06:13:26.100Z,572.70
2018-06-22T06:14:26.101Z,619.20
2018-06-22T06:15:26.064Z,623.00
2018-06-22T06:16:26.038Z,720.50
2018-06-22T06:17:26.000Z,704.30
2018-06-22T06:18:25.988Z,874.70
2018-06-22T06:19:25.964Z,892.50
2018-06-22T06:20:25.947Z,900.80
2018-06-22T06:21:25.964Z,980.40
2018-06-22T06:22:25.924Z,839.70
2018-06-22T06:23:25.865Z,789.80
2018-06-22T06:24:25.829Z,885.90
2018-06-22T06:25:25.810Z,833.00
2018-06-22T06:26:25.785Z,833.60
2018-06-22T06:27:25.755Z,882.50
2018-06-22T06:28:25.713Z,787.00
2018-06-22T06:29:25.680Z,724.00
2018-06-22T06:30:25.654Z,696.30
2018-06-22T06:31:25.645Z,686.80
2018-06-22T06:32:25.606Z,736.80
2018-06-22T06:33:25.592Z,649.60
2018-06-22T06:34:25.587Z,664.90
2018-06-22T06:35:25.556Z,668.30
2018-06-22T06:36:25.519Z,717.70
2018-06-22T06:37:25.475Z,691.60
2018-06-22T06:38:25.449Z,704.40
2018-06-22T06:39:25.422Z,714.30
2018-06-22T06:40:25.400Z,717.80
2018-06-22T06:41:25.364Z,695.20
2018-06-22T06:42:25.505Z,706.50
2018-06-22T06:43:25.317Z,736.10
2018-06-22T06:44:25.292Z,704.20
2018-06-22T06:45:25.268Z,694.60
2018-06-22T06:46:25.241Z,750.20
2018-06-22T06:47:25.217Z,694.80
2018-06-22T06:48:25.187Z,690.60
2018-06-22T06:49:25.165Z,657.10
2018-06-22T06:50:25.138Z,702.30
2018-06-22T06:51:25.110Z,687.30
2018-06-22T06:52:25.081Z,659.10
2018-06-22T06:53:25.057Z,634.20
2018-06-22T06:54:25.029Z,648.50
2018-06-22T06:55:25.004Z,702.60
2018-06-22T06:56:24.983Z,675.80
2018-06-22T06:57:24.951Z,647.50
2018-06-22T06:58:24.925Z,682.70
2018-06-22T06:59:24.899Z,687.30
2018-06-22T07:00:24.881Z,673.40
2018-06-22T07:01:24.849Z,705.10
2018-06-22T07:02:24.827Z,753.50
2018-06-22T07:03:24.800Z,711.00
2018-06-22T07:04:24.769Z,733.10
2018-06-22T07:05:24.746Z,745.10
2018-06-22T07:06:24.739Z,752.00
2018-06-22T07:07:24.694Z,799.10
2018-06-22T07:08:24.709Z,793.90
2018-06-22T07:09:24.638Z,862.90
2018-06-22T07:10:24.610Z,911.70
2018-06-22T07:11:24.582Z,871.60
2018-06-22T07:12:24.554Z,736.00
2018-06-22T07:13:24.535Z,863.10
2018-06-22T07:14:24.565Z,798.90
2018-06-22T07:15:24.480Z,846.80
2018-06-22T07:16:24.459Z,855.90
2018-06-22T07:17:24.426Z,883.40
2018-06-22T07:18:24.404Z,942.70
2018-06-22T07:19:24.376Z,915.40
2018-06-22T07:20:24.353Z,872.30
2018-06-22T07:21:24.327Z,897.80
2018-06-22T07:22:24.295Z,883.90
2018-06-22T07:23:24.322Z,894.90
2018-06-22T07:24:24.241Z,909.50
2018-06-22T07:25:24.221Z,822.30
2018-06-22T07:26:24.194Z,854.20
2018-06-22T07:27:24.159Z,898.30
2018-06-22T07:28:24.136Z,818.00
2018-06-22T07:29:24.115Z,820.50
2018-06-22T07:30:24.080Z,804.70
2018-06-22T07:31:24.063Z,789.70
2018-06-22T07:32:24.036Z,730.30
2018-06-22T07:33:24.004Z,746.40
2018-06-22T07:34:23.975Z,745.40
2018-06-22T07:35:23.958Z,863.40
2018-06-22T07:36:23.932Z,869.70
2018-06-22T07:37:23.899Z,887.80
2018-06-22T07:38:23.878Z,824.00
2018-06-22T07:39:23.848Z,755.80
2018-06-22T07:40:23.821Z,822.70
2018-06-22T07:41:23.795Z,759.60
2018-06-22T07:42:23.775Z,758.90
2018-06-22T07:43:23.742Z,799.60
2018-06-22T07:44:23.721Z,651.20
2018-06-22T07:45:23.688Z,801.10
2018-06-22T07:46:23.664Z,747.50
2018-06-22T07:47:23.640Z,768.80
2018-06-22T07:48:23.610Z,725.50
2018-06-22T07:49:23.648Z,816.00
2018-06-22T07:50:23.565Z,791.60
2018-06-22T07:51:23.528Z,796.30
2018-06-22T07:52:23.507Z,705.70
2018-06-22T07:53:23.483Z,811.90
2018-06-22T07:54:23.448Z,901.00
2018-06-22T07:55:23.437Z,859.70
2018-06-22T07:56:23.405Z,838.40
2018-06-22T07:57:23.375Z,910.70
2018-06-22T07:58:23.354Z,865.80
2018-06-22T07:59:23.319Z,875.00
2018-06-22T08:00:23.295Z,947.90
2018-06-22T08:01:23.272Z,877.40
2018-06-22T08:02:23.245Z,827.50
2018-06-22T08:03:23.216Z,864.60
2018-06-22T08:04:23.203Z,895.40
2018-06-22T08:05:23.163Z,894.50
2018-06-22T08:06:23.270Z,886.80
2018-06-22T08:07:23.117Z,862.00
2018-06-22T08:08:23.088Z,851.60
2018-06-22T08:09:23.064Z,940.00
2018-06-22T08:10:23.035Z,874.00
2018-06-22T08:11:23.012Z,823.50
2018-06-22T08:12:22.980Z,833.70
2018-06-22T08:13:22.967Z,846.70
2018-06-22T08:14:22.925Z,835.20
2018-06-22T08:15:22.906Z,938.90
2018-06-22T08:16:22.871Z,926.10
2018-06-22T08:17:22.855Z,893.80
2018-06-22T08:18:22.823Z,980.80
2018-06-22T08:19:22.797Z,972.40
2018-06-22T08:20:22.773Z,911.90
2018-06-22T08:21:22.742Z,942.40
2018-06-22T08:22:22.722Z,983.50
2018-06-22T08:23:22.688Z,971.10
2018-06-22T08:24:22.671Z,900.10
2018-06-22T08:25:22.640Z,916.70
2018-06-22T08:26:22.609Z,965.10
2018-06-22T08:27:22.587Z,991.60
2018-06-22T08:28:22.556Z,898.60
2018-06-22T08:29:22.540Z,877.60
2018-06-22T08:30:22.506Z,925.00
2018-06-22T08:31:22.485Z,957.90
2018-06-22T08:32:22.460Z,915.30
2018-06-22T08:33:22.426Z,914.00
2018-06-22T08:34:22.443Z,957.70
2018-06-22T08:35:22.376Z,903.90
2018-06-22T08:36:22.355Z,850.60
2018-06-22T08:37:22.342Z,856.50
2018-06-22T08:38:22.306Z,909.20
2018-06-22T08:39:22.277Z,855.90
2018-06-22T08:40:22.250Z,879.00
2018-06-22T08:41:22.218Z,883.00
2018-06-22T08:42:22.204Z,858.80
2018-06-22T08:43:22.163Z,917.20
2018-06-22T08:44:22.235Z,894.90
2018-06-22T08:45:22.117Z,871.70
2018-06-22T08:46:22.091Z,817.30
2018-06-22T08:47:22.066Z,831.30
2018-06-22T08:48:22.033Z,829.10
2018-06-22T08:49:22.013Z,813.60
2018-06-22T08:50:21.984Z,854.20
2018-06-22T08:51:21.961Z,842.30
2018-06-22T08:52:21.937Z,869.20
2018-06-22T08:53:21.912Z,822.10
2018-06-22T08:54:21.954Z,943.60
2018-06-22T08:55:21.868Z,878.70
2018-06-22T08:56:21.828Z,835.20
2018-06-22T08:57:21.812Z,817.70
2018-06-22T08:58:21.817Z,802.50
2018-06-22T08:59:21.752Z,816.80
2018-06-22T09:00:21.726Z,767.10
2018-06-22T09:01:21.758Z,764.70
2018-06-22T09:02:21.670Z,807.60
2018-06-22T09:03:21.649Z,813.10
2018-06-22T09:04:21.618Z,815.60
2018-06-22T09:05:21.595Z,816.80
2018-06-22T09:06:21.571Z,814.20
2018-06-22T09:07:21.538Z,800.60
2018-06-22T09:08:21.556Z,783.70
2018-06-22T09:09:21.494Z,874.20
2018-06-22T09:10:21.463Z,828.20
2018-06-22T09:11:21.444Z,780.80
2018-06-22T09:12:21.411Z,751.90
2018-06-22T09:13:21.384Z,784.70
2018-06-22T09:14:21.365Z,718.60
2018-06-22T09:15:21.339Z,753.00
2018-06-22T09:16:21.314Z,727.40
2018-06-22T09:17:21.277Z,724.20
2018-06-22T09:18:21.253Z,726.20
2018-06-22T09:19:21.234Z,750.80
2018-06-22T09:20:21.207Z,706.70
2018-06-22T09:21:21.199Z,695.90
2018-06-22T09:22:21.175Z,676.40
2018-06-22T09:23:21.128Z,695.80
2018-06-22T09:24:21.109Z,706.60
2018-06-22T09:25:21.100Z,753.80
2018-06-22T09:26:21.056Z,677.70
2018-06-22T09:27:21.025Z,670.60
2018-06-22T09:28:21.004Z,677.90
2018-06-22T09:29:20.974Z,647.80
2018-06-22T09:30:20.959Z,670.60
2018-06-22T09:31:20.925Z,679.40
2018-06-22T09:32:20.892Z,655.80
2018-06-22T09:33:20.873Z,590.30
2018-06-22T09:34:20.846Z,611.80
2018-06-22T09:35:20.814Z,635.30
2018-06-22T09:36:20.798Z,615.00
2018-06-22T09:37:20.768Z,576.30
2018-06-22T09:38:20.735Z,600.70
2018-06-22T09:39:20.724Z,647.50
2018-06-22T09:40:20.689Z,552.50
2018-06-22T09:41:20.659Z,551.70
2018-06-22T09:42:20.638Z,533.00
2018-06-22T09:43:20.612Z,581.60
2018-06-22T09:44:20.581Z,542.40
2018-06-22T09:45:20.555Z,509.30
2018-06-22T09:46:20.536Z,597.00
2018-06-22T09:47:20.504Z,534.90
2018-06-22T09:48:20.527Z,452.10
2018-06-22T09:49:20.453Z,481.10
2018-06-22T09:50:20.429Z,489.80
2018-06-22T09:51:20.407Z,584.80
2018-06-22T09:52:20.373Z,524.80
2018-06-22T09:53:20.357Z,518.70
2018-06-22T09:54:20.330Z,474.80
2018-06-22T09:55:20.304Z,558.80
2018-06-22T09:56:20.279Z,488.10
2018-06-22T09:57:20.245Z,565.10
2018-06-22T09:58:20.225Z,523.40
2018-06-22T09:59:20.194Z,396.10
2018-06-22T10:00:20.176Z,524.40
2018-06-22T10:01:20.149Z,828.90
2018-06-22T10:02:20.120Z,885.90
2018-06-22T10:03:20.099Z,843.20
2018-06-22T10:04:20.065Z,744.60
2018-06-22T10:05:20.047Z,849.00
2018-06-22T10:06:20.021Z,748.80
2018-06-22T10:07:20.001Z,833.20
2018-06-22T10:08:19.987Z,682.90
2018-06-22T10:09:19.936Z,701.10
2018-06-22T10:10:19.912Z,653.60
2018-06-22T10:11:19.896Z,647.80
2018-06-22T10:12:19.864Z,605.60
2018-06-22T10:13:19.855Z,606.60
2018-06-22T10:14:19.810Z,607.30
2018-06-22T10:15:19.791Z,605.70
2018-06-22T10:16:19.759Z,618.00
2018-06-22T10:17:19.733Z,664.50
2018-06-22T10:18:19.712Z,830.60
2018-06-22T10:19:19.702Z,959.50
2018-06-22T10:20:19.662Z,875.20
2018-06-22T10:21:19.627Z,779.10
2018-06-22T10:22:19.606Z,649.80
2018-06-22T10:23:19.585Z,759.20
2018-06-22T10:24:19.579Z,904.50
2018-06-22T10:25:19.538Z,853.10
2018-06-22T10:26:19.507Z,924.00
2018-06-22T10:27:19.538Z,870.00
2018-06-22T10:28:19.455Z,844.70
2018-06-22T10:29:19.421Z,890.50
2018-06-22T10:30:19.405Z,891.00
2018-06-22T10:31:19.372Z,880.90
2018-06-22T10:32:19.350Z,816.30
2018-06-22T10:33:19.322Z,869.80
2018-06-22T10:34:19.292Z,840.70
2018-06-22T10:35:19.267Z,888.80
2018-06-22T10:36:19.241Z,813.70
2018-06-22T10:37:19.223Z,811.20
2018-06-22T10:38:19.189Z,776.90
2018-06-22T10:39:19.221Z,782.80
2018-06-22T10:40:19.148Z,858.40
2018-06-22T10:41:19.110Z,822.30
2018-06-22T10:42:19.088Z,794.30
2018-06-22T10:43:19.059Z,742.60
2018-06-22T10:44:19.031Z,813.70
2018-06-22T10:45:19.016Z,799.90
2018-06-22T10:46:18.983Z,746.20
2018-06-22T10:47:18.983Z,781.00
2018-06-22T10:48:18.926Z,796.30
2018-06-22T10:49:18.910Z,828.60
2018-06-22T10:50:18.897Z,816.70
2018-06-22T10:51:18.850Z,847.10
2018-06-22T10:52:18.833Z,876.10
2018-06-22T10:53:18.802Z,798.50
2018-06-22T10:54:18.775Z,806.60
2018-06-22T10:55:18.746Z,979.30
2018-06-22T10:56:18.719Z,793.00
2018-06-22T10:57:18.701Z,832.30
2018-06-22T10:58:18.671Z,851.40
2018-06-22T10:59:18.659Z,821.70
2018-06-22T11:00:18.624Z,791.50
2018-06-22T11:01:18.591Z,831.50
2018-06-22T11:02:18.566Z,815.40
2018-06-22T11:03:18.538Z,782.10
2018-06-22T11:04:18.515Z,829.10
2018-06-22T11:05:18.512Z,780.50
2018-06-22T11:06:18.461Z,796.80
2018-06-22T11:07:18.442Z,721.80
2018-06-22T11:08:18.408Z,726.40
2018-06-22T11:09:18.388Z,640.30
2018-06-22T11:10:18.363Z,695.90
2018-06-22T11:11:18.329Z,554.70
2018-06-22T11:12:18.308Z,503.80
2018-06-22T11:13:18.284Z,554.00
2018-06-22T11:14:18.255Z,453.80
2018-06-22T11:15:18.241Z,709.80
2018-06-22T11:16:18.202Z,474.00
2018-06-22T11:17:18.257Z,590.20
2018-06-22T11:18:18.152Z,470.60
2018-06-22T11:19:18.130Z,485.40
2018-06-22T11:20:18.101Z,547.70
2018-06-22T11:21:18.131Z,464.60
2018-06-22T11:22:18.055Z,524.20
2018-06-22T11:23:18.019Z,498.80
2018-06-22T11:24:18.004Z,511.40
2018-06-22T11:25:17.969Z,477.90
2018-06-22T11:26:17.948Z,611.60
2018-06-22T11:27:17.995Z,577.00
2018-06-22T11:28:17.896Z,429.50
2018-06-22T11:29:17.867Z,452.50
2018-06-22T11:30:17.849Z,409.90
2018-06-22T11:31:17.815Z,460.90
2018-06-22T11:32:17.848Z,369.30
2018-06-22T11:33:17.768Z,387.90
2018-06-22T11:34:17.740Z,375.30
2018-06-22T11:35:17.720Z,421.40
2018-06-22T11:36:17.770Z,369.00
2018-06-22T11:37:17.662Z,705.60
2018-06-22T11:38:17.638Z,795.90
2018-06-22T11:39:17.610Z,743.10
2018-06-22T11:40:17.583Z,576.50
2018-06-22T11:41:17.609Z,603.70
2018-06-22T11:42:17.559Z,558.90
2018-06-22T11:43:17.509Z,723.80
2018-06-22T11:44:17.489Z,798.30
2018-06-22T11:45:17.458Z,718.00
2018-06-22T11:46:17.435Z,640.30
2018-06-22T11:47:17.408Z,644.50
2018-06-22T11:48:17.402Z,606.50
2018-06-22T11:49:17.362Z,688.30
2018-06-22T11:50:17.333Z,636.50
2018-06-22T11:51:17.304Z,699.10
2018-06-22T11:52:17.284Z,725.10
2018-06-22T11:53:17.266Z,728.10
2018-06-22T11:54:17.229Z,694.40
2018-06-22T11:55:17.205Z,641.00
2018-06-22T11:56:17.178Z,662.80
2018-06-22T11:57:17.165Z,647.80
2018-06-22T11:58:17.128Z,592.60
2018-06-22T11:59:17.101Z,661.70
2018-06-22T12:00:17.080Z,782.50
2018-06-22T12:01:17.052Z,1033.40
2018-06-22T12:02:17.033Z,1088.60
2018-06-22T12:03:17.002Z,1081.00
2018-06-22T12:04:17.007Z,1099.70
2018-06-22T12:05:16.973Z,1038.50
2018-06-22T12:06:16.948Z,1089.90
2018-06-22T12:07:16.916Z,1158.50
2018-06-22T12:08:16.922Z,1105.20
2018-06-22T12:09:16.867Z,1187.00
2018-06-22T12:10:16.839Z,1204.30
2018-06-22T12:11:16.865Z,1228.60
2018-06-22T12:12:16.770Z,1234.80
2018-06-22T12:13:16.761Z,1260.70
2018-06-22T12:14:16.724Z,1246.70
2018-06-22T12:15:16.709Z,1249.40
2018-06-22T12:16:16.690Z,1207.10
2018-06-22T12:17:16.642Z,1208.70
2018-06-22T12:18:16.615Z,1224.70
2018-06-22T12:19:16.657Z,1231.60
2018-06-22T12:20:16.560Z,1212.50
2018-06-22T12:21:16.562Z,1179.10
2018-06-22T12:22:16.513Z,1142.10
2018-06-22T12:23:16.489Z,1206.20
2018-06-22T12:24:16.467Z,1184.50
2018-06-22T12:25:16.432Z,1225.30
2018-06-22T12:26:16.409Z,1247.40
2018-06-22T12:27:16.383Z,1087.40